createdAt,value
2019-04-10T00:05:01.196Z,97323.85
2019-04-10T00:07:50.623Z,97529.25
2019-04-10T00:10:40.255Z,97501.90
2019-04-10T00:13:30.944Z,97527.74
2019-04-10T00:16:21.046Z,97264.13
2019-04-10T00:19:11.030Z,97525.69
2019-04-10T00:21:59.869Z,97526.97
2019-04-10T00:24:48.702Z,97528.08
2019-04-10T00:27:37.485Z,97319.63
2019-04-10T00:30:27.088Z,97526.26
2019-04-10T00:33:16.809Z,97532.13
2019-04-10T00:36:05.856Z,97533.16
2019-04-10T00:38:56.110Z,97532.29
2019-04-10T00:41:44.932Z,97528.85
2019-04-10T00:44:33.712Z,97530.66
2019-04-10T00:47:23.241Z,97536.97
2019-04-10T00:50:13.082Z,97536.69
2019-04-10T00:52:54.725Z,97366.86
2019-04-10T00:55:44.018Z,97536.31
2019-04-10T00:58:34.026Z,97393.52
2019-04-10T01:01:23.620Z,97286.61
2019-04-10T01:04:13.992Z,97528.05
2019-04-10T01:07:04.302Z,97533.25
2019-04-10T01:09:53.451Z,97534.94
2019-04-10T01:12:44.000Z,97528.16
2019-04-10T01:15:34.509Z,97311.05
2019-04-10T01:18:24.730Z,97525.41
2019-04-10T01:21:32.602Z,97279.27
2019-04-10T01:27:15.992Z,97518.98
2019-04-10T01:30:26.975Z,97527.77
2019-04-10T01:36:23.565Z,97524.44
2019-04-10T01:42:22.794Z,97270.69
2019-04-10T01:45:13.299Z,97522.77
2019-04-10T01:48:03.741Z,97521.55
2019-04-10T01:50:53.568Z,97514.84
2019-04-10T01:53:35.640Z,97520.44
2019-04-10T01:56:30.203Z,97333.00
2019-04-10T02:05:24.792Z,97508.09
2019-04-10T02:08:16.080Z,97276.39
2019-04-10T02:11:04.881Z,97513.27
2019-04-10T02:13:54.095Z,97459.86
2019-04-10T02:16:43.244Z,97240.80
2019-04-10T02:19:34.327Z,97265.00
2019-04-10T02:22:24.598Z,97516.36
2019-04-10T02:25:15.692Z,97515.11
2019-04-10T02:28:05.080Z,97515.53
2019-04-10T02:30:54.487Z,97521.88
2019-04-10T02:33:44.390Z,97436.21
2019-04-10T02:36:34.416Z,97315.04
2019-04-10T02:39:32.368Z,97515.16
2019-04-10T02:42:14.401Z,97510.88
2019-04-10T02:45:26.002Z,97435.04
2019-04-10T02:48:17.084Z,97516.42
2019-04-10T02:51:07.655Z,97505.88
2019-04-10T02:53:50.221Z,97510.49
2019-04-10T02:56:40.935Z,97224.88
2019-04-10T02:59:31.102Z,97507.97
2019-04-10T03:02:20.284Z,97221.03
2019-04-10T03:05:10.783Z,97504.20
2019-04-10T03:08:01.202Z,97511.91
2019-04-10T03:10:55.845Z,97502.48
2019-04-10T03:13:40.602Z,97505.49
2019-04-10T03:16:29.395Z,97505.03
2019-04-10T03:19:19.119Z,97502.91
2019-04-10T03:22:09.134Z,97498.31
2019-04-10T03:25:00.244Z,97499.16
2019-04-10T03:27:50.373Z,97497.07
2019-04-10T03:30:41.528Z,97498.34
2019-04-10T03:33:52.177Z,97366.05
2019-04-10T03:39:36.320Z,97491.14
2019-04-10T03:42:25.332Z,97368.15
2019-04-10T03:48:10.183Z,97490.74
2019-04-10T03:50:58.983Z,97333.83
2019-04-10T03:53:40.559Z,97497.12
2019-04-10T03:56:29.718Z,97502.22
2019-04-10T03:59:20.191Z,97501.80
2019-04-10T04:02:11.550Z,97504.38
2019-04-10T04:05:00.881Z,97500.95
2019-04-10T04:07:50.657Z,97506.48
2019-04-10T04:10:40.454Z,97512.43
2019-04-10T04:13:31.293Z,97513.31
2019-04-10T04:16:21.227Z,97518.40
2019-04-10T04:19:10.182Z,97528.59
2019-04-10T04:21:58.915Z,97526.91
2019-04-10T04:24:48.210Z,97529.00
2019-04-10T04:27:38.217Z,97523.06
2019-04-10T04:30:27.016Z,97230.37
2019-04-10T04:33:15.843Z,97530.70
2019-04-10T04:36:04.631Z,97531.15
2019-04-10T04:38:53.415Z,97534.12
2019-04-10T04:41:42.277Z,97309.97
2019-04-10T04:44:31.152Z,97532.84
2019-04-10T04:47:19.942Z,97540.89
2019-04-10T04:50:09.761Z,97530.66
2019-04-10T04:53:00.378Z,97548.96
2019-04-10T04:55:43.000Z,97552.33
2019-04-10T04:58:31.803Z,97264.08
2019-04-10T05:01:21.119Z,97556.58
2019-04-10T05:04:11.464Z,97558.69
2019-04-10T05:07:00.244Z,97566.31
2019-04-10T05:09:49.072Z,97563.77
2019-04-10T05:12:39.549Z,97450.38
2019-04-10T05:15:29.050Z,97410.01
2019-04-10T05:18:19.083Z,97576.48
2019-04-10T05:21:10.611Z,97582.91
2019-04-10T05:24:00.189Z,97588.86
2019-04-10T05:26:49.143Z,97593.54
2019-04-10T05:29:39.487Z,97443.93
2019-04-10T05:32:28.273Z,97432.93
2019-04-10T05:35:17.310Z,97604.59
2019-04-10T05:38:08.044Z,97315.00
2019-04-10T05:40:59.166Z,97535.36
2019-04-10T05:43:48.893Z,97614.38
2019-04-10T05:46:39.099Z,97617.74
2019-04-10T05:49:28.911Z,97621.59
2019-04-10T05:52:18.431Z,97615.22
2019-04-10T05:55:00.232Z,97617.37
2019-04-10T05:57:49.082Z,97628.84
2019-04-10T06:00:37.820Z,97627.14
2019-04-10T06:03:26.622Z,97567.64
2019-04-10T06:06:16.572Z,97627.53
2019-04-10T06:09:26.936Z,97625.84
2019-04-10T06:12:15.674Z,97363.06
2019-04-10T06:15:26.518Z,97627.97
2019-04-10T06:18:15.356Z,97631.36
2019-04-10T06:21:05.077Z,97627.97
2019-04-10T06:23:56.673Z,97623.25
2019-04-10T06:26:45.896Z,97623.30
2019-04-10T06:29:37.113Z,97624.97
2019-04-10T06:32:27.471Z,97624.52
2019-04-10T06:35:17.045Z,97349.94
2019-04-10T06:38:06.418Z,97620.30
2019-04-10T06:40:56.338Z,97471.72
2019-04-10T06:43:45.373Z,97629.21
2019-04-10T06:46:37.975Z,97629.17
2019-04-10T06:49:26.960Z,97410.98
2019-04-10T06:52:16.738Z,97368.95
2019-04-10T06:55:00.734Z,97628.14
2019-04-10T06:57:55.791Z,97635.21
2019-04-10T07:00:41.044Z,97629.72
2019-04-10T07:03:45.880Z,97629.23
2019-04-10T07:06:22.805Z,97559.58
2019-04-10T07:12:10.800Z,97626.81
2019-04-10T07:14:59.776Z,97452.17
2019-04-10T07:17:51.083Z,97630.39
2019-04-10T07:20:40.595Z,97623.80
2019-04-10T07:23:31.886Z,97621.47
2019-04-10T07:26:30.975Z,97627.72
2019-04-10T07:29:11.057Z,97625.19
2019-04-10T07:32:00.922Z,97627.58
2019-04-10T07:34:50.784Z,97628.23
2019-04-10T07:37:40.462Z,97625.59
2019-04-10T07:40:33.858Z,97501.56
2019-04-10T07:43:24.484Z,97629.09
2019-04-10T07:46:10.518Z,97627.11
2019-04-10T07:48:59.294Z,97631.66
2019-04-10T07:51:49.146Z,97635.03
2019-04-10T07:54:39.602Z,97635.10
2019-04-10T07:57:22.513Z,97562.83
2019-04-10T08:03:21.120Z,97632.78
2019-04-10T08:06:10.994Z,97643.95
2019-04-10T08:09:01.288Z,97636.62
2019-04-10T08:11:51.045Z,97641.56
2019-04-10T08:14:42.025Z,97566.40
2019-04-10T08:17:32.476Z,97417.08
2019-04-10T08:20:22.472Z,97646.30
2019-04-10T08:23:12.214Z,97639.89
2019-04-10T08:26:01.770Z,97651.20
2019-04-10T08:29:01.710Z,97646.05
2019-04-10T08:31:50.515Z,97469.95
2019-04-10T08:34:40.049Z,97647.45
2019-04-10T08:37:29.863Z,97399.84
2019-04-10T08:40:19.103Z,97645.27
2019-04-10T08:43:09.156Z,97649.72
2019-04-10T08:45:58.907Z,97422.71
2019-04-10T08:48:49.571Z,97565.59
2019-04-10T08:51:39.461Z,97653.37
2019-04-10T08:54:29.501Z,97655.19
2019-04-10T08:57:12.222Z,97621.91
2019-04-10T09:00:00.989Z,97434.78
2019-04-10T09:02:50.538Z,97657.25
2019-04-10T09:05:40.299Z,97659.06
2019-04-10T09:08:29.102Z,97651.86
2019-04-10T09:11:24.658Z,97432.30
2019-04-10T09:14:08.653Z,97643.45
2019-04-10T09:16:58.934Z,97643.77
2019-04-10T09:19:47.732Z,97650.48
2019-04-10T09:22:57.177Z,97476.10
2019-04-10T09:25:27.130Z,97640.72
2019-04-10T09:28:16.168Z,97636.41
2019-04-10T09:31:07.382Z,97631.36
2019-04-10T09:33:56.935Z,97638.53
2019-04-10T09:36:45.778Z,97446.56
2019-04-10T09:39:35.632Z,97648.05
2019-04-10T09:42:44.203Z,97640.26
2019-04-10T09:45:33.054Z,97645.34
2019-04-10T09:48:22.248Z,97647.11
2019-04-10T09:51:15.315Z,97646.41
2019-04-10T09:54:03.607Z,97644.32
2019-04-10T09:56:46.394Z,97652.20
2019-04-10T09:59:36.906Z,97489.02
2019-04-10T10:02:25.744Z,97644.69
2019-04-10T10:05:14.778Z,97650.75
2019-04-10T10:08:04.313Z,97508.05
2019-04-10T10:10:54.127Z,97646.34
2019-04-10T10:16:50.673Z,97638.78
2019-04-10T10:19:40.712Z,97548.14
2019-04-10T10:22:30.922Z,97642.76
2019-04-10T10:25:21.524Z,97573.37
2019-04-10T10:31:06.195Z,97435.07
2019-04-10T10:33:56.542Z,97512.36
2019-04-10T10:36:48.939Z,97644.85
2019-04-10T10:39:37.193Z,97644.14
2019-04-10T10:42:25.969Z,97501.63
2019-04-10T10:45:15.085Z,97642.43
2019-04-10T10:48:03.896Z,97637.09
2019-04-10T10:50:53.326Z,97646.72
2019-04-10T10:53:44.063Z,97643.30
2019-04-10T10:56:34.165Z,97648.98
2019-04-10T10:59:25.228Z,97402.41
2019-04-10T11:02:14.781Z,97444.59
2019-04-10T11:05:06.884Z,97645.09
2019-04-10T11:07:55.683Z,97650.02
2019-04-10T11:10:49.146Z,97639.54
2019-04-10T11:13:35.113Z,97432.27
2019-04-10T11:16:24.840Z,97636.36
2019-04-10T11:19:15.356Z,97647.23
2019-04-10T11:22:26.546Z,97596.84
2019-04-10T11:25:16.616Z,97571.18
2019-04-10T11:28:06.037Z,97640.98
2019-04-10T11:30:56.171Z,97631.00
2019-04-10T11:33:51.370Z,97526.78
2019-04-10T11:36:37.000Z,97643.88
2019-04-10T11:39:28.287Z,97637.09
2019-04-10T11:42:16.316Z,97641.61
2019-04-10T11:44:59.347Z,97394.09
2019-04-10T11:47:50.751Z,97449.16
2019-04-10T11:50:38.750Z,97640.66
2019-04-10T11:53:27.772Z,97635.70
2019-04-10T11:56:18.911Z,97641.73
2019-04-10T11:59:09.817Z,97640.64
2019-04-10T12:02:02.656Z,97495.23
2019-04-10T12:13:19.845Z,97451.17
2019-04-10T12:16:10.206Z,97648.58
2019-04-10T12:18:59.226Z,97646.97
2019-04-10T12:21:50.376Z,97469.83
2019-04-10T12:24:40.535Z,97642.50
2019-04-10T12:27:49.565Z,97643.77
2019-04-10T12:30:39.418Z,97651.27
2019-04-10T12:33:29.661Z,97645.39
2019-04-10T12:36:20.502Z,97655.48
2019-04-10T12:39:10.407Z,97613.86
2019-04-10T12:41:59.676Z,97653.98
2019-04-10T12:44:41.225Z,97648.27
2019-04-10T12:47:30.912Z,97654.40
2019-04-10T12:50:20.765Z,97645.47
2019-04-10T12:53:09.674Z,97647.57
2019-04-10T12:55:59.743Z,97649.64
2019-04-10T12:58:49.194Z,97486.66
2019-04-10T13:01:38.582Z,97648.56
2019-04-10T13:04:28.619Z,97645.18
2019-04-10T13:07:17.532Z,97644.90
2019-04-10T13:10:27.449Z,97643.05
2019-04-10T13:13:17.951Z,97641.40
2019-04-10T13:16:07.803Z,97454.81
2019-04-10T13:18:57.583Z,97652.09
2019-04-10T13:21:46.720Z,97643.37
2019-04-10T13:24:37.561Z,97653.05
2019-04-10T13:27:28.576Z,97656.58
2019-04-10T13:30:18.698Z,97486.95
2019-04-10T13:33:08.888Z,97652.62
2019-04-10T13:35:57.770Z,97649.09
2019-04-10T13:38:46.631Z,97640.91
2019-04-10T13:41:36.665Z,97645.22
2019-04-10T13:44:19.413Z,97640.26
2019-04-10T13:47:09.063Z,97648.94
2019-04-10T13:50:00.019Z,97644.19
2019-04-10T13:55:59.017Z,97648.96
2019-04-10T13:58:49.313Z,97649.19
2019-04-10T14:01:38.194Z,97648.39
2019-04-10T14:04:27.243Z,97650.78
2019-04-10T14:10:17.374Z,97655.38
2019-04-10T14:16:14.796Z,97656.23
2019-04-10T14:19:06.206Z,97641.91
2019-04-10T14:21:57.475Z,97649.22
2019-04-10T14:24:48.977Z,97659.56
2019-04-10T14:27:38.504Z,97672.50
2019-04-10T14:30:47.312Z,97673.48
2019-04-10T14:33:36.150Z,97661.10
2019-04-10T14:36:25.032Z,97664.22
2019-04-10T14:42:42.674Z,97664.27
2019-04-10T14:45:25.603Z,97668.00
2019-04-10T14:48:33.640Z,97652.13
2019-04-10T14:51:22.504Z,97687.94
2019-04-10T14:54:11.439Z,97681.97
2019-04-10T14:57:00.240Z,97697.00
2019-04-10T14:59:49.313Z,97692.72
2019-04-10T15:02:39.789Z,97690.28
2019-04-10T15:05:30.281Z,97545.25
2019-04-10T15:08:38.094Z,97686.91
2019-04-10T15:11:26.882Z,97691.16
2019-04-10T15:13:57.228Z,97690.36
2019-04-10T15:16:53.406Z,97694.15
2019-04-10T15:19:37.456Z,97605.86
2019-04-10T15:22:27.328Z,97697.48
2019-04-10T15:25:23.411Z,97696.85
2019-04-10T15:28:12.207Z,97706.81
2019-04-10T15:31:01.402Z,97705.58
2019-04-10T15:33:51.845Z,97707.50
2019-04-10T15:36:43.587Z,97678.14
2019-04-10T15:39:36.264Z,97686.25
2019-04-10T15:45:10.656Z,97725.66
2019-04-10T15:48:00.504Z,97719.93
2019-04-10T15:50:50.008Z,97716.90
2019-04-10T15:53:38.840Z,97722.66
2019-04-10T15:56:27.719Z,97635.41
2019-04-10T15:59:16.524Z,97727.88
2019-04-10T16:02:05.704Z,97720.11
2019-04-10T16:04:55.902Z,97731.51
2019-04-10T16:07:44.890Z,97732.94
2019-04-10T16:10:55.119Z,97729.78
2019-04-10T16:20:02.252Z,97745.70
2019-04-10T16:23:10.154Z,97510.30
2019-04-10T16:25:58.882Z,97739.15
2019-04-10T16:28:47.687Z,97738.73
2019-04-10T16:31:37.674Z,97741.47
2019-04-10T16:37:24.259Z,97619.70
2019-04-10T16:40:33.896Z,97662.06
2019-04-10T16:43:24.396Z,97551.94
2019-04-10T16:46:07.249Z,97746.23
2019-04-10T16:48:56.091Z,97746.27
2019-04-10T16:51:44.926Z,97748.58
2019-04-10T16:54:33.706Z,97749.67
2019-04-10T16:57:22.701Z,97748.90
2019-04-10T17:03:42.099Z,97522.04
2019-04-10T17:06:32.521Z,97764.42
2019-04-10T17:12:42.114Z,97534.93
2019-04-10T17:15:32.269Z,97761.55
2019-04-10T17:18:24.378Z,97759.58
2019-04-10T17:21:13.122Z,97667.91
2019-04-10T17:26:59.454Z,97564.77
2019-04-10T17:29:49.364Z,97787.08
2019-04-10T17:35:33.719Z,97784.05
2019-04-10T17:38:24.514Z,97788.63
2019-04-10T17:41:33.359Z,97790.73
2019-04-10T17:44:23.412Z,97693.22
2019-04-10T17:47:09.463Z,97802.78
2019-04-10T17:49:56.305Z,97662.17
2019-04-10T17:52:45.257Z,97760.34
2019-04-10T17:55:35.738Z,97823.20
2019-04-10T17:58:26.128Z,97824.24
2019-04-10T18:04:10.552Z,97826.03
2019-04-10T18:06:59.637Z,97830.88
2019-04-10T18:09:50.735Z,97835.89
2019-04-10T18:12:40.666Z,97697.64
2019-04-10T18:15:30.939Z,97783.08
2019-04-10T18:18:39.945Z,97839.59
2019-04-10T18:21:29.250Z,97610.41
2019-04-10T18:24:18.033Z,97854.31
2019-04-10T18:27:07.874Z,97857.89
2019-04-10T18:29:57.374Z,97867.09
2019-04-10T18:32:46.168Z,97866.12
2019-04-10T18:38:43.821Z,97879.66
2019-04-10T18:41:33.315Z,97886.11
2019-04-10T18:44:22.764Z,97888.72
2019-04-10T18:47:13.149Z,97890.94
2019-04-10T18:50:22.435Z,97900.41
2019-04-10T18:56:18.941Z,97910.19
2019-04-10T18:59:26.896Z,97916.31
2019-04-10T19:02:34.914Z,97850.09
2019-04-10T19:05:43.670Z,97918.19
2019-04-10T19:09:05.012Z,97920.28
2019-04-10T19:14:50.833Z,97931.61
2019-04-10T19:17:41.934Z,97927.42
2019-04-10T19:20:51.553Z,97927.96
2019-04-10T19:23:41.757Z,97940.41
2019-04-10T19:35:19.890Z,97939.31
2019-04-10T19:38:09.324Z,97947.42
2019-04-10T19:40:58.812Z,97745.91
2019-04-10T19:43:48.542Z,97955.98
2019-04-10T19:46:38.299Z,97956.83
2019-04-10T19:49:19.754Z,97958.58
2019-04-10T19:51:49.182Z,97959.44
2019-04-10T19:54:38.768Z,97957.80
2019-04-10T19:57:47.814Z,97961.25
2019-04-10T20:03:46.056Z,97968.93
2019-04-10T20:06:34.833Z,97966.45
2019-04-10T20:15:34.157Z,97978.86
2019-04-10T20:18:24.530Z,97824.42
2019-04-10T20:21:14.111Z,97977.16
2019-04-10T20:24:02.886Z,97983.58
2019-04-10T20:26:51.825Z,97981.02
2019-04-10T20:32:52.423Z,97991.73
2019-04-10T20:35:42.520Z,97994.69
2019-04-10T20:38:33.492Z,97775.91
2019-04-10T20:41:23.094Z,97747.42
2019-04-10T20:44:11.884Z,98001.94
2019-04-10T20:46:54.654Z,97998.53
2019-04-10T20:49:44.629Z,97999.40
2019-04-10T20:52:34.641Z,97795.90
2019-04-10T20:55:25.741Z,97998.98
2019-04-10T20:58:15.492Z,98010.49
2019-04-10T21:01:06.059Z,98007.52
2019-04-10T21:03:56.687Z,97736.30
2019-04-10T21:06:46.623Z,97932.98
2019-04-10T21:09:36.163Z,98013.87
2019-04-10T21:12:25.925Z,98017.72
2019-04-10T21:15:14.710Z,98021.09
2019-04-10T21:18:04.626Z,97985.33
2019-04-10T21:20:54.002Z,98028.78
2019-04-10T21:23:42.787Z,98031.31
2019-04-10T21:26:32.472Z,98027.91
2019-04-10T21:29:42.078Z,97808.45
2019-04-10T21:32:52.919Z,97785.05
2019-04-10T21:38:40.705Z,98041.08
2019-04-10T21:41:24.146Z,98042.77
2019-04-10T21:47:21.619Z,98051.62
2019-04-10T21:50:11.391Z,97974.05
2019-04-10T21:53:00.186Z,97807.84
2019-04-10T21:55:48.976Z,98050.84
2019-04-10T21:58:38.806Z,98061.82
2019-04-10T22:01:28.479Z,98063.81
2019-04-10T22:07:32.325Z,98062.88
2019-04-10T22:13:30.571Z,98058.55
2019-04-10T22:19:28.755Z,97836.14
2019-04-10T22:22:18.147Z,98056.20
2019-04-10T22:30:52.669Z,98051.84
2019-04-10T22:33:42.582Z,98058.95
2019-04-10T22:36:33.141Z,97837.64
2019-04-10T22:39:23.105Z,97778.03
2019-04-10T22:42:06.004Z,98066.83
2019-04-10T22:44:55.908Z,98066.32
2019-04-10T22:47:45.515Z,98070.11
2019-04-10T22:50:36.470Z,98064.89
2019-04-10T22:53:26.465Z,98067.05
2019-04-10T22:56:15.243Z,98068.19
2019-04-10T22:59:04.035Z,98070.88
2019-04-10T23:02:01.365Z,98069.17
2019-04-10T23:04:43.388Z,98067.87
2019-04-10T23:07:32.167Z,98067.08
2019-04-10T23:10:21.234Z,97808.56
2019-04-10T23:19:34.288Z,98074.00
2019-04-10T23:22:23.121Z,97833.73
2019-04-10T23:25:11.998Z,98076.26
2019-04-10T23:28:01.102Z,97842.72
2019-04-10T23:30:51.300Z,97855.94
2019-04-10T23:36:48.657Z,98081.17
2019-04-10T23:39:38.621Z,98085.92
2019-04-10T23:42:28.330Z,97819.72
2019-04-10T23:45:13.515Z,98088.08
2019-04-10T23:48:02.379Z,97840.68
2019-04-10T23:50:51.460Z,97795.53
2019-04-10T23:53:41.632Z,97825.30
2019-04-10T23:56:31.451Z,98005.84
2019-04-10T23:59:20.993Z,98091.64
